sensor_id;sensor_type;location;lat;lon;timestamp;P1;durP1;ratioP1;P2;durP2;ratioP2
64816;SDS011;53289;45.602;11.904;2022-11-28T00:01:29;38.15;;;20.05;;
64816;SDS011;53289;45.602;11.904;2022-11-28T00:03:58;33.15;;;17.95;;
64816;SDS011;53289;45.602;11.904;2022-11-28T00:06:24;34.85;;;18.80;;
64816;SDS011;53289;45.602;11.904;2022-11-28T00:08:52;37.75;;;21.05;;
64816;SDS011;53289;45.602;11.904;2022-11-28T00:11:18;35.88;;;20.48;;
64816;SDS011;53289;45.602;11.904;2022-11-28T00:13:44;37.83;;;20.15;;
64816;SDS011;53289;45.602;11.904;2022-11-28T00:16:18;37.85;;;20.50;;
64816;SDS011;53289;45.602;11.904;2022-11-28T00:18:45;38.70;;;22.30;;
64816;SDS011;53289;45.602;11.904;2022-11-28T00:21:13;39.50;;;22.60;;
64816;SDS011;53289;45.602;11.904;2022-11-28T00:23:40;35.35;;;19.65;;
64816;SDS011;53289;45.602;11.904;2022-11-28T00:28:54;37.47;;;20.33;;
64816;SDS011;53289;45.602;11.904;2022-11-28T00:31:22;36.95;;;19.20;;
64816;SDS011;53289;45.602;11.904;2022-11-28T00:33:50;33.67;;;17.73;;
64816;SDS011;53289;45.602;11.904;2022-11-28T00:36:17;34.53;;;19.85;;
64816;SDS011;53289;45.602;11.904;2022-11-28T00:38:44;39.90;;;22.27;;
64816;SDS011;53289;45.602;11.904;2022-11-28T00:41:11;36.28;;;21.38;;
64816;SDS011;53289;45.602;11.904;2022-11-28T00:43:39;38.28;;;20.25;;
64816;SDS011;53289;45.602;11.904;2022-11-28T00:46:07;36.72;;;20.63;;
64816;SDS011;53289;45.602;11.904;2022-11-28T00:48:34;38.00;;;19.33;;
64816;SDS011;53289;45.602;11.904;2022-11-28T00:51:11;35.78;;;18.40;;
64816;SDS011;53289;45.602;11.904;2022-11-28T00:53:39;29.85;;;17.83;;
64816;SDS011;53289;45.602;11.904;2022-11-28T00:56:07;32.00;;;18.42;;
64816;SDS011;53289;45.602;11.904;2022-11-28T00:58:37;36.42;;;19.10;;
64816;SDS011;53289;45.602;11.904;2022-11-28T01:01:15;31.92;;;17.17;;
64816;SDS011;53289;45.602;11.904;2022-11-28T01:03:44;32.95;;;18.55;;
64816;SDS011;53289;45.602;11.904;2022-11-28T01:06:10;31.90;;;17.90;;
64816;SDS011;53289;45.602;11.904;2022-11-28T01:08:37;26.95;;;16.65;;
64816;SDS011;53289;45.602;11.904;2022-11-28T01:11:09;26.25;;;14.77;;
64816;SDS011;53289;45.602;11.904;2022-11-28T01:13:37;28.83;;;16.20;;
64816;SDS011;53289;45.602;11.904;2022-11-28T01:16:04;28.05;;;15.88;;
64816;SDS011;53289;45.602;11.904;2022-11-28T01:18:30;26.55;;;15.60;;
64816;SDS011;53289;45.602;11.904;2022-11-28T01:20:56;29.02;;;15.68;;
64816;SDS011;53289;45.602;11.904;2022-11-28T01:23:22;28.50;;;16.98;;
64816;SDS011;53289;45.602;11.904;2022-11-28T01:25:47;31.63;;;17.17;;
64816;SDS011;53289;45.602;11.904;2022-11-28T01:28:13;30.50;;;17.52;;
64816;SDS011;53289;45.602;11.904;2022-11-28T01:30:39;31.95;;;15.75;;
64816;SDS011;53289;45.602;11.904;2022-11-28T01:33:05;24.95;;;13.30;;
64816;SDS011;53289;45.602;11.904;2022-11-28T01:35:31;23.88;;;13.70;;
64816;SDS011;53289;45.602;11.904;2022-11-28T01:37:57;26.77;;;15.68;;
64816;SDS011;53289;45.602;11.904;2022-11-28T01:40:23;27.50;;;15.30;;
64816;SDS011;53289;45.602;11.904;2022-11-28T01:42:49;22.25;;;12.48;;
64816;SDS011;53289;45.602;11.904;2022-11-28T01:45:22;20.20;;;10.75;;
64816;SDS011;53289;45.602;11.904;2022-11-28T01:47:51;23.95;;;12.93;;
64816;SDS011;53289;45.602;11.904;2022-11-28T01:50:19;21.85;;;11.50;;
64816;SDS011;53289;45.602;11.904;2022-11-28T01:52:47;26.90;;;15.43;;
64816;SDS011;53289;45.602;11.904;2022-11-28T01:55:18;26.17;;;14.68;;
64816;SDS011;53289;45.602;11.904;2022-11-28T01:57:48;24.25;;;13.82;;
64816;SDS011;53289;45.602;11.904;2022-11-28T02:00:17;24.77;;;12.70;;
64816;SDS011;53289;45.602;11.904;2022-11-28T02:05:13;24.98;;;13.43;;
64816;SDS011;53289;45.602;11.904;2022-11-28T02:07:41;22.17;;;12.82;;
64816;SDS011;53289;45.602;11.904;2022-11-28T02:10:09;27.92;;;14.27;;
64816;SDS011;53289;45.602;11.904;2022-11-28T02:15:37;30.45;;;16.00;;
64816;SDS011;53289;45.602;11.904;2022-11-28T02:18:11;23.73;;;13.65;;
64816;SDS011;53289;45.602;11.904;2022-11-28T02:23:54;25.50;;;15.30;;
64816;SDS011;53289;45.602;11.904;2022-11-28T02:30:26;24.17;;;13.45;;
64816;SDS011;53289;45.602;11.904;2022-11-28T02:33:24;21.77;;;12.68;;
64816;SDS011;53289;45.602;11.904;2022-11-28T02:35:39;20.10;;;11.90;;
64816;SDS011;53289;45.602;11.904;2022-11-28T02:41:17;24.48;;;13.77;;
64816;SDS011;53289;45.602;11.904;2022-11-28T02:49:28;24.38;;;13.57;;
64816;SDS011;53289;45.602;11.904;2022-11-28T02:51:56;25.65;;;14.07;;
64816;SDS011;53289;45.602;11.904;2022-11-28T02:54:35;22.00;;;12.30;;
64816;SDS011;53289;45.602;11.904;2022-11-28T02:57:03;20.85;;;12.10;;
64816;SDS011;53289;45.602;11.904;2022-11-28T02:59:31;20.73;;;12.40;;
64816;SDS011;53289;45.602;11.904;2022-11-28T03:02:01;22.80;;;12.95;;
64816;SDS011;53289;45.602;11.904;2022-11-28T03:07:27;19.67;;;11.10;;
64816;SDS011;53289;45.602;11.904;2022-11-28T03:15:26;21.00;;;11.00;;
64816;SDS011;53289;45.602;11.904;2022-11-28T03:18:05;19.70;;;10.55;;
64816;SDS011;53289;45.602;11.904;2022-11-28T03:20:51;17.75;;;10.43;;
64816;SDS011;53289;45.602;11.904;2022-11-28T03:23:41;18.95;;;10.18;;
64816;SDS011;53289;45.602;11.904;2022-11-28T03:26:55;15.77;;;9.88;;
64816;SDS011;53289;45.602;11.904;2022-11-28T03:29:11;19.98;;;10.20;;
64816;SDS011;53289;45.602;11.904;2022-11-28T03:31:56;17.15;;;9.32;;
64816;SDS011;53289;45.602;11.904;2022-11-28T03:34:33;15.50;;;9.43;;
64816;SDS011;53289;45.602;11.904;2022-11-28T03:37:10;20.77;;;10.77;;
64816;SDS011;53289;45.602;11.904;2022-11-28T03:39:43;17.52;;;10.00;;
64816;SDS011;53289;45.602;11.904;2022-11-28T03:42:14;17.38;;;10.18;;
64816;SDS011;53289;45.602;11.904;2022-11-28T03:44:47;16.92;;;9.57;;
64816;SDS011;53289;45.602;11.904;2022-11-28T03:47:20;17.95;;;9.93;;
64816;SDS011;53289;45.602;11.904;2022-11-28T03:49:55;16.05;;;9.20;;
64816;SDS011;53289;45.602;11.904;2022-11-28T03:52:27;15.18;;;8.65;;
64816;SDS011;53289;45.602;11.904;2022-11-28T03:55:04;17.15;;;9.35;;
64816;SDS011;53289;45.602;11.904;2022-11-28T03:58:29;17.17;;;9.43;;
64816;SDS011;53289;45.602;11.904;2022-11-28T04:00:41;17.33;;;9.63;;
64816;SDS011;53289;45.602;11.904;2022-11-28T04:03:31;18.38;;;10.25;;
64816;SDS011;53289;45.602;11.904;2022-11-28T04:06:30;19.43;;;9.53;;
64816;SDS011;53289;45.602;11.904;2022-11-28T04:09:13;17.75;;;9.68;;
64816;SDS011;53289;45.602;11.904;2022-11-28T04:11:44;16.35;;;10.02;;
64816;SDS011;53289;45.602;11.904;2022-11-28T04:16:51;16.25;;;9.73;;
64816;SDS011;53289;45.602;11.904;2022-11-28T04:22:23;12.30;;;7.07;;
64816;SDS011;53289;45.602;11.904;2022-11-28T04:25:09;15.43;;;8.65;;
64816;SDS011;53289;45.602;11.904;2022-11-28T04:27:40;16.77;;;9.45;;
64816;SDS011;53289;45.602;11.904;2022-11-28T04:30:12;14.80;;;9.18;;
64816;SDS011;53289;45.602;11.904;2022-11-28T04:32:40;13.32;;;7.55;;
64816;SDS011;53289;45.602;11.904;2022-11-28T04:35:13;16.15;;;8.57;;
64816;SDS011;53289;45.602;11.904;2022-11-28T04:37:46;13.52;;;7.72;;
64816;SDS011;53289;45.602;11.904;2022-11-28T04:40:15;15.20;;;8.73;;
64816;SDS011;53289;45.602;11.904;2022-11-28T04:42:46;17.63;;;8.80;;
64816;SDS011;53289;45.602;11.904;2022-11-28T04:45:28;16.20;;;8.35;;
64816;SDS011;53289;45.602;11.904;2022-11-28T04:47:58;16.08;;;8.95;;
64816;SDS011;53289;45.602;11.904;2022-11-28T04:50:27;14.90;;;8.13;;
64816;SDS011;53289;45.602;11.904;2022-11-28T04:53:14;16.15;;;7.85;;
64816;SDS011;53289;45.602;11.904;2022-11-28T04:56:04;14.27;;;8.68;;
64816;SDS011;53289;45.602;11.904;2022-11-28T04:58:42;14.68;;;7.88;;
64816;SDS011;53289;45.602;11.904;2022-11-28T05:01:13;12.82;;;7.53;;
64816;SDS011;53289;45.602;11.904;2022-11-28T05:03:44;14.05;;;8.38;;
64816;SDS011;53289;45.602;11.904;2022-11-28T05:06:10;16.38;;;8.57;;
64816;SDS011;53289;45.602;11.904;2022-11-28T05:08:51;17.05;;;8.43;;
64816;SDS011;53289;45.602;11.904;2022-11-28T05:11:17;13.43;;;8.35;;
64816;SDS011;53289;45.602;11.904;2022-11-28T05:13:44;14.52;;;7.63;;
64816;SDS011;53289;45.602;11.904;2022-11-28T05:16:10;13.68;;;7.57;;
64816;SDS011;53289;45.602;11.904;2022-11-28T05:18:37;14.77;;;8.07;;
64816;SDS011;53289;45.602;11.904;2022-11-28T05:21:03;12.55;;;7.35;;
64816;SDS011;53289;45.602;11.904;2022-11-28T05:23:40;12.82;;;6.25;;
64816;SDS011;53289;45.602;11.904;2022-11-28T05:26:18;13.48;;;7.18;;
64816;SDS011;53289;45.602;11.904;2022-11-28T05:28:45;11.52;;;7.38;;
64816;SDS011;53289;45.602;11.904;2022-11-28T05:31:13;13.57;;;6.75;;
64816;SDS011;53289;45.602;11.904;2022-11-28T05:33:41;15.45;;;8.35;;
64816;SDS011;53289;45.602;11.904;2022-11-28T05:36:08;15.07;;;7.10;;
64816;SDS011;53289;45.602;11.904;2022-11-28T05:38:36;13.38;;;7.00;;
64816;SDS011;53289;45.602;11.904;2022-11-28T05:41:02;14.63;;;8.88;;
64816;SDS011;53289;45.602;11.904;2022-11-28T05:43:29;13.10;;;7.22;;
64816;SDS011;53289;45.602;11.904;2022-11-28T05:45:55;16.45;;;9.23;;
64816;SDS011;53289;45.602;11.904;2022-11-28T05:48:21;15.85;;;8.77;;
64816;SDS011;53289;45.602;11.904;2022-11-28T05:50:48;15.70;;;8.35;;
64816;SDS011;53289;45.602;11.904;2022-11-28T05:53:15;18.27;;;9.88;;
64816;SDS011;53289;45.602;11.904;2022-11-28T05:55:42;15.35;;;9.32;;
64816;SDS011;53289;45.602;11.904;2022-11-28T05:58:09;13.90;;;8.35;;
64816;SDS011;53289;45.602;11.904;2022-11-28T06:00:35;13.57;;;7.88;;
64816;SDS011;53289;45.602;11.904;2022-11-28T06:03:01;13.98;;;7.20;;
64816;SDS011;53289;45.602;11.904;2022-11-28T06:05:28;11.98;;;7.28;;
64816;SDS011;53289;45.602;11.904;2022-11-28T06:07:54;13.65;;;7.57;;
64816;SDS011;53289;45.602;11.904;2022-11-28T06:10:20;11.52;;;7.22;;
64816;SDS011;53289;45.602;11.904;2022-11-28T06:12:47;11.75;;;6.70;;
64816;SDS011;53289;45.602;11.904;2022-11-28T06:15:14;13.68;;;7.35;;
64816;SDS011;53289;45.602;11.904;2022-11-28T06:17:40;13.07;;;7.80;;
64816;SDS011;53289;45.602;11.904;2022-11-28T06:20:06;15.75;;;7.95;;
64816;SDS011;53289;45.602;11.904;2022-11-28T06:22:33;16.45;;;8.25;;
64816;SDS011;53289;45.602;11.904;2022-11-28T06:24:59;14.18;;;8.00;;
64816;SDS011;53289;45.602;11.904;2022-11-28T06:27:25;14.60;;;8.93;;
64816;SDS011;53289;45.602;11.904;2022-11-28T06:29:51;16.55;;;9.07;;
64816;SDS011;53289;45.602;11.904;2022-11-28T06:32:18;15.60;;;8.57;;
64816;SDS011;53289;45.602;11.904;2022-11-28T06:34:44;13.25;;;7.05;;
64816;SDS011;53289;45.602;11.904;2022-11-28T06:37:10;16.17;;;8.20;;
64816;SDS011;53289;45.602;11.904;2022-11-28T06:39:36;13.48;;;7.82;;
64816;SDS011;53289;45.602;11.904;2022-11-28T06:42:02;15.60;;;8.43;;
64816;SDS011;53289;45.602;11.904;2022-11-28T06:44:28;16.05;;;8.70;;
64816;SDS011;53289;45.602;11.904;2022-11-28T06:46:54;13.82;;;7.80;;
64816;SDS011;53289;45.602;11.904;2022-11-28T06:49:20;16.70;;;8.98;;
64816;SDS011;53289;45.602;11.904;2022-11-28T06:51:46;15.40;;;8.35;;
64816;SDS011;53289;45.602;11.904;2022-11-28T06:54:12;15.10;;;8.23;;
64816;SDS011;53289;45.602;11.904;2022-11-28T06:56:39;16.13;;;8.65;;
64816;SDS011;53289;45.602;11.904;2022-11-28T06:59:05;16.05;;;9.02;;
64816;SDS011;53289;45.602;11.904;2022-11-28T07:01:31;17.63;;;9.40;;
64816;SDS011;53289;45.602;11.904;2022-11-28T07:03:58;15.32;;;8.85;;
64816;SDS011;53289;45.602;11.904;2022-11-28T07:06:25;25.10;;;11.20;;
64816;SDS011;53289;45.602;11.904;2022-11-28T07:08:52;16.65;;;9.02;;
64816;SDS011;53289;45.602;11.904;2022-11-28T07:11:20;23.80;;;12.68;;
64816;SDS011;53289;45.602;11.904;2022-11-28T07:13:56;27.10;;;12.18;;
64816;SDS011;53289;45.602;11.904;2022-11-28T07:16:25;19.35;;;8.73;;
64816;SDS011;53289;45.602;11.904;2022-11-28T07:18:53;20.02;;;9.05;;
64816;SDS011;53289;45.602;11.904;2022-11-28T07:21:21;20.33;;;9.00;;
64816;SDS011;53289;45.602;11.904;2022-11-28T07:23:48;18.27;;;9.45;;
64816;SDS011;53289;45.602;11.904;2022-11-28T07:26:15;21.05;;;11.20;;
64816;SDS011;53289;45.602;11.904;2022-11-28T07:28:42;23.42;;;10.88;;
64816;SDS011;53289;45.602;11.904;2022-11-28T07:31:10;25.98;;;12.73;;
64816;SDS011;53289;45.602;11.904;2022-11-28T07:33:39;20.00;;;11.52;;
64816;SDS011;53289;45.602;11.904;2022-11-28T07:36:07;19.33;;;9.68;;
64816;SDS011;53289;45.602;11.904;2022-11-28T07:38:39;15.87;;;8.90;;
64816;SDS011;53289;45.602;11.904;2022-11-28T07:41:09;17.83;;;8.57;;
64816;SDS011;53289;45.602;11.904;2022-11-28T07:43:37;16.90;;;9.23;;
64816;SDS011;53289;45.602;11.904;2022-11-28T07:46:04;16.05;;;7.90;;
64816;SDS011;53289;45.602;11.904;2022-11-28T07:48:32;23.08;;;11.52;;
64816;SDS011;53289;45.602;11.904;2022-11-28T07:50:59;23.02;;;11.18;;
64816;SDS011;53289;45.602;11.904;2022-11-28T07:53:29;18.33;;;8.88;;
64816;SDS011;53289;45.602;11.904;2022-11-28T07:55:54;13.73;;;8.15;;
64816;SDS011;53289;45.602;11.904;2022-11-28T07:58:20;18.27;;;8.13;;
64816;SDS011;53289;45.602;11.904;2022-11-28T08:00:47;17.10;;;9.10;;
64816;SDS011;53289;45.602;11.904;2022-11-28T08:03:13;15.95;;;9.20;;
64816;SDS011;53289;45.602;11.904;2022-11-28T08:05:38;16.08;;;8.55;;
64816;SDS011;53289;45.602;11.904;2022-11-28T08:08:06;16.13;;;9.35;;
64816;SDS011;53289;45.602;11.904;2022-11-28T08:10:32;16.15;;;9.18;;
64816;SDS011;53289;45.602;11.904;2022-11-28T08:12:58;14.88;;;7.95;;
64816;SDS011;53289;45.602;11.904;2022-11-28T08:15:24;18.70;;;10.80;;
64816;SDS011;53289;45.602;11.904;2022-11-28T08:17:55;20.13;;;10.38;;
64816;SDS011;53289;45.602;11.904;2022-11-28T08:20:20;18.13;;;10.80;;
64816;SDS011;53289;45.602;11.904;2022-11-28T08:22:46;15.70;;;8.90;;
64816;SDS011;53289;45.602;11.904;2022-11-28T08:25:12;19.80;;;9.65;;
64816;SDS011;53289;45.602;11.904;2022-11-28T08:27:38;17.45;;;9.30;;
64816;SDS011;53289;45.602;11.904;2022-11-28T08:30:04;15.60;;;8.98;;
64816;SDS011;53289;45.602;11.904;2022-11-28T08:32:32;13.60;;;8.02;;
64816;SDS011;53289;45.602;11.904;2022-11-28T08:34:57;16.27;;;9.30;;
64816;SDS011;53289;45.602;11.904;2022-11-28T08:37:23;15.18;;;9.10;;
64816;SDS011;53289;45.602;11.904;2022-11-28T08:39:50;14.23;;;8.05;;
64816;SDS011;53289;45.602;11.904;2022-11-28T08:42:16;16.98;;;9.85;;
64816;SDS011;53289;45.602;11.904;2022-11-28T08:44:42;15.10;;;7.85;;
64816;SDS011;53289;45.602;11.904;2022-11-28T08:47:08;15.73;;;8.32;;
64816;SDS011;53289;45.602;11.904;2022-11-28T08:49:35;15.48;;;7.43;;
64816;SDS011;53289;45.602;11.904;2022-11-28T08:52:02;12.32;;;7.32;;
64816;SDS011;53289;45.602;11.904;2022-11-28T08:54:28;14.45;;;7.63;;
64816;SDS011;53289;45.602;11.904;2022-11-28T08:56:54;16.83;;;9.30;;
64816;SDS011;53289;45.602;11.904;2022-11-28T08:59:20;15.73;;;9.60;;
64816;SDS011;53289;45.602;11.904;2022-11-28T09:01:46;23.83;;;11.95;;
64816;SDS011;53289;45.602;11.904;2022-11-28T09:04:12;20.25;;;10.90;;
64816;SDS011;53289;45.602;11.904;2022-11-28T09:06:38;16.27;;;9.23;;
64816;SDS011;53289;45.602;11.904;2022-11-28T09:09:05;22.73;;;13.13;;
64816;SDS011;53289;45.602;11.904;2022-11-28T09:11:33;18.75;;;10.63;;
64816;SDS011;53289;45.602;11.904;2022-11-28T09:13:59;22.75;;;12.73;;
64816;SDS011;53289;45.602;11.904;2022-11-28T09:16:25;19.60;;;12.07;;
64816;SDS011;53289;45.602;11.904;2022-11-28T09:18:51;22.17;;;11.23;;
64816;SDS011;53289;45.602;11.904;2022-11-28T09:21:19;18.27;;;10.70;;
64816;SDS011;53289;45.602;11.904;2022-11-28T09:23:45;17.83;;;10.77;;
64816;SDS011;53289;45.602;11.904;2022-11-28T09:26:16;21.23;;;11.90;;
64816;SDS011;53289;45.602;11.904;2022-11-28T09:28:43;16.92;;;9.35;;
64816;SDS011;53289;45.602;11.904;2022-11-28T09:31:10;20.05;;;11.43;;
64816;SDS011;53289;45.602;11.904;2022-11-28T09:33:37;17.20;;;10.00;;
64816;SDS011;53289;45.602;11.904;2022-11-28T09:36:05;16.25;;;10.15;;
64816;SDS011;53289;45.602;11.904;2022-11-28T09:38:32;18.02;;;9.93;;
64816;SDS011;53289;45.602;11.904;2022-11-28T09:40:59;16.95;;;9.25;;
64816;SDS011;53289;45.602;11.904;2022-11-28T09:45:59;17.52;;;9.93;;
64816;SDS011;53289;45.602;11.904;2022-11-28T09:48:40;18.77;;;11.25;;
64816;SDS011;53289;45.602;11.904;2022-11-28T09:54:36;21.50;;;12.68;;
64816;SDS011;53289;45.602;11.904;2022-11-28T09:56:48;16.60;;;10.40;;
64816;SDS011;53289;45.602;11.904;2022-11-28T10:10:16;19.48;;;12.38;;
64816;SDS011;53289;45.602;11.904;2022-11-28T10:13:04;15.50;;;9.35;;
64816;SDS011;53289;45.602;11.904;2022-11-28T10:15:43;14.57;;;9.05;;
64816;SDS011;53289;45.602;11.904;2022-11-28T10:18:42;16.48;;;9.90;;
64816;SDS011;53289;45.602;11.904;2022-11-28T10:21:22;15.77;;;9.60;;
64816;SDS011;53289;45.602;11.904;2022-11-28T10:23:58;16.40;;;8.80;;
64816;SDS011;53289;45.602;11.904;2022-11-28T10:26:35;18.58;;;9.32;;
64816;SDS011;53289;45.602;11.904;2022-11-28T10:29:06;14.90;;;8.55;;
64816;SDS011;53289;45.602;11.904;2022-11-28T10:31:48;12.52;;;8.15;;
64816;SDS011;53289;45.602;11.904;2022-11-28T10:35:03;15.70;;;8.15;;
64816;SDS011;53289;45.602;11.904;2022-11-28T10:42:50;12.60;;;7.72;;
64816;SDS011;53289;45.602;11.904;2022-11-28T10:51:03;15.15;;;7.45;;
64816;SDS011;53289;45.602;11.904;2022-11-28T10:53:37;15.07;;;7.63;;
64816;SDS011;53289;45.602;11.904;2022-11-28T10:59:11;14.23;;;7.40;;
64816;SDS011;53289;45.602;11.904;2022-11-28T11:01:40;12.30;;;6.88;;
64816;SDS011;53289;45.602;11.904;2022-11-28T11:04:19;12.40;;;7.07;;
64816;SDS011;53289;45.602;11.904;2022-11-28T11:09:48;14.18;;;6.75;;
64816;SDS011;53289;45.602;11.904;2022-11-28T11:12:22;11.77;;;6.90;;
64816;SDS011;53289;45.602;11.904;2022-11-28T11:14:51;12.40;;;7.18;;
64816;SDS011;53289;45.602;11.904;2022-11-28T11:17:27;15.00;;;7.72;;
64816;SDS011;53289;45.602;11.904;2022-11-28T11:19:58;11.00;;;6.70;;
64816;SDS011;53289;45.602;11.904;2022-11-28T11:22:28;14.93;;;8.13;;
64816;SDS011;53289;45.602;11.904;2022-11-28T11:25:04;12.60;;;7.18;;
64816;SDS011;53289;45.602;11.904;2022-11-28T11:29:56;15.20;;;7.18;;
64816;SDS011;53289;45.602;11.904;2022-11-28T11:32:26;17.10;;;8.57;;
64816;SDS011;53289;45.602;11.904;2022-11-28T11:34:57;13.02;;;6.75;;
64816;SDS011;53289;45.602;11.904;2022-11-28T11:37:36;16.33;;;9.20;;
64816;SDS011;53289;45.602;11.904;2022-11-28T11:40:16;11.93;;;6.75;;
64816;SDS011;53289;45.602;11.904;2022-11-28T11:42:58;14.63;;;7.57;;
64816;SDS011;53289;45.602;11.904;2022-11-28T11:45:29;15.80;;;8.15;;
64816;SDS011;53289;45.602;11.904;2022-11-28T11:48:00;12.48;;;7.15;;
64816;SDS011;53289;45.602;11.904;2022-11-28T11:50:28;12.70;;;6.78;;
64816;SDS011;53289;45.602;11.904;2022-11-28T11:53:06;12.75;;;7.35;;
64816;SDS011;53289;45.602;11.904;2022-11-28T11:55:48;13.50;;;7.20;;
64816;SDS011;53289;45.602;11.904;2022-11-28T11:58:25;11.45;;;6.50;;
64816;SDS011;53289;45.602;11.904;2022-11-28T12:00:59;15.07;;;7.63;;
64816;SDS011;53289;45.602;11.904;2022-11-28T12:06:12;12.45;;;6.95;;
64816;SDS011;53289;45.602;11.904;2022-11-28T12:11:49;13.98;;;6.97;;
64816;SDS011;53289;45.602;11.904;2022-11-28T12:22:14;15.50;;;8.27;;
64816;SDS011;53289;45.602;11.904;2022-11-28T12:27:29;14.38;;;7.75;;
64816;SDS011;53289;45.602;11.904;2022-11-28T12:33:00;16.65;;;9.07;;
64816;SDS011;53289;45.602;11.904;2022-11-28T12:47:06;15.55;;;8.65;;
64816;SDS011;53289;45.602;11.904;2022-11-28T13:01:02;14.88;;;8.93;;
64816;SDS011;53289;45.602;11.904;2022-11-28T13:03:52;15.85;;;8.52;;
64816;SDS011;53289;45.602;11.904;2022-11-28T13:12:02;11.48;;;6.72;;
64816;SDS011;53289;45.602;11.904;2022-11-28T13:14:53;11.38;;;7.28;;
64816;SDS011;53289;45.602;11.904;2022-11-28T13:17:27;13.10;;;8.65;;
64816;SDS011;53289;45.602;11.904;2022-11-28T13:22:56;17.40;;;9.10;;
64816;SDS011;53289;45.602;11.904;2022-11-28T13:33:54;17.08;;;8.73;;
64816;SDS011;53289;45.602;11.904;2022-11-28T13:39:06;14.55;;;7.57;;
64816;SDS011;53289;45.602;11.904;2022-11-28T13:44:42;16.70;;;9.05;;
64816;SDS011;53289;45.602;11.904;2022-11-28T13:47:22;15.93;;;8.85;;
64816;SDS011;53289;45.602;11.904;2022-11-28T13:50:37;14.05;;;8.13;;
64816;SDS011;53289;45.602;11.904;2022-11-28T13:53:18;13.60;;;7.50;;
64816;SDS011;53289;45.602;11.904;2022-11-28T13:55:47;15.15;;;8.48;;
64816;SDS011;53289;45.602;11.904;2022-11-28T13:58:19;11.43;;;7.28;;
64816;SDS011;53289;45.602;11.904;2022-11-28T14:03:50;14.25;;;7.95;;
64816;SDS011;53289;45.602;11.904;2022-11-28T14:06:24;16.35;;;9.35;;
64816;SDS011;53289;45.602;11.904;2022-11-28T14:20:47;11.65;;;7.20;;
64816;SDS011;53289;45.602;11.904;2022-11-28T14:25:49;10.80;;;6.95;;
64816;SDS011;53289;45.602;11.904;2022-11-28T14:30:58;12.65;;;8.15;;
64816;SDS011;53289;45.602;11.904;2022-11-28T14:33:39;10.90;;;6.70;;
64816;SDS011;53289;45.602;11.904;2022-11-28T14:49:48;20.52;;;10.75;;
64816;SDS011;53289;45.602;11.904;2022-11-28T14:52:45;19.50;;;10.90;;
64816;SDS011;53289;45.602;11.904;2022-11-28T14:55:19;18.00;;;10.32;;
64816;SDS011;53289;45.602;11.904;2022-11-28T15:00:43;16.83;;;10.57;;
64816;SDS011;53289;45.602;11.904;2022-11-28T15:03:10;14.23;;;9.38;;
64816;SDS011;53289;45.602;11.904;2022-11-28T15:06:00;15.30;;;9.43;;
64816;SDS011;53289;45.602;11.904;2022-11-28T15:14:29;18.02;;;10.32;;
64816;SDS011;53289;45.602;11.904;2022-11-28T15:17:01;14.65;;;8.70;;
64816;SDS011;53289;45.602;11.904;2022-11-28T15:21:58;15.27;;;8.80;;
64816;SDS011;53289;45.602;11.904;2022-11-28T15:26:58;19.90;;;12.53;;
64816;SDS011;53289;45.602;11.904;2022-11-28T15:29:51;18.33;;;9.60;;
64816;SDS011;53289;45.602;11.904;2022-11-28T15:32:25;18.20;;;10.25;;
64816;SDS011;53289;45.602;11.904;2022-11-28T15:34:54;19.08;;;11.20;;
64816;SDS011;53289;45.602;11.904;2022-11-28T15:37:31;22.42;;;11.73;;
64816;SDS011;53289;45.602;11.904;2022-11-28T15:39:58;17.77;;;10.43;;
64816;SDS011;53289;45.602;11.904;2022-11-28T15:42:32;26.45;;;13.35;;
64816;SDS011;53289;45.602;11.904;2022-11-28T15:48:02;24.00;;;13.15;;
64816;SDS011;53289;45.602;11.904;2022-11-28T15:50:29;27.23;;;14.82;;
64816;SDS011;53289;45.602;11.904;2022-11-28T15:52:59;30.38;;;17.65;;
64816;SDS011;53289;45.602;11.904;2022-11-28T15:55:28;26.70;;;15.70;;
64816;SDS011;53289;45.602;11.904;2022-11-28T16:00:48;33.78;;;18.60;;
64816;SDS011;53289;45.602;11.904;2022-11-28T16:03:21;41.63;;;19.48;;
64816;SDS011;53289;45.602;11.904;2022-11-28T16:05:52;22.27;;;13.63;;
64816;SDS011;53289;45.602;11.904;2022-11-28T16:08:28;33.38;;;17.90;;
64816;SDS011;53289;45.602;11.904;2022-11-28T16:11:06;20.08;;;13.98;;
64816;SDS011;53289;45.602;11.904;2022-11-28T16:13:35;24.23;;;14.30;;
64816;SDS011;53289;45.602;11.904;2022-11-28T16:16:06;26.40;;;14.20;;
64816;SDS011;53289;45.602;11.904;2022-11-28T16:19:15;22.58;;;14.32;;
64816;SDS011;53289;45.602;11.904;2022-11-28T16:21:51;21.65;;;14.07;;
64816;SDS011;53289;45.602;11.904;2022-11-28T16:24:29;28.70;;;15.15;;
64816;SDS011;53289;45.602;11.904;2022-11-28T16:27:01;26.15;;;16.13;;
64816;SDS011;53289;45.602;11.904;2022-11-28T16:29:33;24.08;;;13.85;;
64816;SDS011;53289;45.602;11.904;2022-11-28T16:32:07;23.95;;;13.48;;
64816;SDS011;53289;45.602;11.904;2022-11-28T16:34:44;25.75;;;15.20;;
64816;SDS011;53289;45.602;11.904;2022-11-28T16:37:12;21.23;;;12.63;;
64816;SDS011;53289;45.602;11.904;2022-11-28T16:39:42;29.63;;;15.30;;
64816;SDS011;53289;45.602;11.904;2022-11-28T16:42:15;23.15;;;14.52;;
64816;SDS011;53289;45.602;11.904;2022-11-28T16:44:44;28.13;;;16.52;;
64816;SDS011;53289;45.602;11.904;2022-11-28T16:47:23;32.75;;;18.17;;
64816;SDS011;53289;45.602;11.904;2022-11-28T16:52:50;34.25;;;19.02;;
64816;SDS011;53289;45.602;11.904;2022-11-28T16:58:00;33.95;;;18.80;;
64816;SDS011;53289;45.602;11.904;2022-11-28T17:00:35;50.60;;;23.33;;
64816;SDS011;53289;45.602;11.904;2022-11-28T17:03:05;35.78;;;19.98;;
64816;SDS011;53289;45.602;11.904;2022-11-28T17:05:31;50.13;;;25.02;;
64816;SDS011;53289;45.602;11.904;2022-11-28T17:07:57;34.28;;;19.73;;
64816;SDS011;53289;45.602;11.904;2022-11-28T17:10:26;40.92;;;21.52;;
64816;SDS011;53289;45.602;11.904;2022-11-28T17:12:52;30.77;;;18.63;;
64816;SDS011;53289;45.602;11.904;2022-11-28T17:15:19;38.72;;;22.27;;
64816;SDS011;53289;45.602;11.904;2022-11-28T17:17:48;39.30;;;23.05;;
64816;SDS011;53289;45.602;11.904;2022-11-28T17:20:14;45.15;;;25.80;;
64816;SDS011;53289;45.602;11.904;2022-11-28T17:22:45;49.35;;;26.95;;
64816;SDS011;53289;45.602;11.904;2022-11-28T17:25:15;34.42;;;20.60;;
64816;SDS011;53289;45.602;11.904;2022-11-28T17:27:44;37.60;;;21.58;;
64816;SDS011;53289;45.602;11.904;2022-11-28T17:30:15;46.30;;;23.73;;
64816;SDS011;53289;45.602;11.904;2022-11-28T17:32:42;36.92;;;19.55;;
64816;SDS011;53289;45.602;11.904;2022-11-28T17:35:21;35.92;;;20.80;;
64816;SDS011;53289;45.602;11.904;2022-11-28T17:37:49;34.95;;;21.75;;
64816;SDS011;53289;45.602;11.904;2022-11-28T17:40:15;36.42;;;19.50;;
64816;SDS011;53289;45.602;11.904;2022-11-28T17:43:01;42.35;;;23.60;;
64816;SDS011;53289;45.602;11.904;2022-11-28T17:45:28;45.53;;;21.92;;
64816;SDS011;53289;45.602;11.904;2022-11-28T17:47:56;34.90;;;22.63;;
64816;SDS011;53289;45.602;11.904;2022-11-28T17:50:22;34.70;;;20.27;;
64816;SDS011;53289;45.602;11.904;2022-11-28T17:52:48;31.92;;;19.27;;
64816;SDS011;53289;45.602;11.904;2022-11-28T17:55:13;31.85;;;18.50;;
64816;SDS011;53289;45.602;11.904;2022-11-28T17:57:41;35.97;;;19.77;;